21:12
Airports
History
Links
Donate
Help keep this website running!
PayPal
Bitcoin
This page is community maintained. The information is intended for PC simulator navigation or reference.
Always use approved charts for navigation.
SC67
Country Squire
Country Squire (SC67)
Rock Hill, South Carolina, United States (29730)
4
Lat/Lng:34° 54' 35.51" N / 81° 4' 29.28" W
34.909864 / -81.074801
Elevation:587'ft / 179mMSL
ID / ICAO:SC67
Runways:1
Longest:(09-27) 788.6m / 2,587ft Grass
Distance To
Airport ID:
Nearby VORs <50NM
Nearby NDBs
Nearby WeatherUpdated 08-20-17 20:54 GMT
Nearby weather at KUZA, Rock Hill/york Co/bryant Field located 5.5 nautical miles from SC67
Altimeter: 30.08
Visibility: 10.0 statute miles
Wind: 4 knots (010°)
Temp: 34°c 93°f
Humidity: 46.8%

METAR: KUZA 202054Z AUTO 01004KT 10SM FEW060 34/21 A3008 RMK AO2 SLP171 T03390206 56014

(Powered by phpweather)
Runway 09 / 27
Dimensions:788.6 x 30.5m 2587' x 100'ft
Surface:Grass
Runway 09 [A]Runway 27 [B]
Heading:084°TH 264°TH
Lat:
Lng:
34° 54' 34.39"N
81° 4' 44.88"W
34° 54' 36.63"N
81° 4' 13.69"W
User Notes and Comments
Google Map
Nearby Airports
(U) Rock Hill/york Co/bryant Field 5.5 NM
KUZA (WX) N 10°
(R) Bethel-lake Wylie 10.3 NM
SC08 NNW 339°
(U) Chester Catawba Rgnl 10.8 NM
KDCM SW 219°
4 York 13.1 NM
36A NW 309°
4 Hawks Knoll 16.6 NM
2NC1 ENE 68°
(U) Lancaster County-mc Whirter Fi 18.0 NM
KLKR SE 135°
(U) Jaars-townsend 18.8 NM
N52 E 99°
VFR Chart
Flight Planning at SkyVector.com